Ernest Shackleton — ZDLS1 — position and weather

sailwx.info

Track history (hours):
 
Tides and Currents Weather Stations Pressure Air Temp Water Temp Dewpoint Dewpoint Depression Visibility Wind Speed Wind Dir Waves Ship Positions

Oceanographic research ship Ernest Shackleton (UK/Norway)

Detailed information on ship capabilities available from University of Delaware's Ocean Information Center and ARCUS's ALIAS (Arctic Logistics Information and Support) project.

Last reported at 2015-Jan-26 04:00 UTC. Time now 2015-Jan-26 06:26 UTC.
Position S 52°48' W 049°36'.

Length 80 m; beam 17 m; draft 7.4 m.

Type: Other ship. MMSI: 740357000.

AWS

Barometer 1001.5 mb
Air temperature 3.7 ° C
Dewpoint -0.2 ° C

Date/timePositionNaut miles runAvg speedWind from/ knotsBaromVisibWave heightAir tempDewpointWater temp
2015-Jan-26 04:00S 52°48' W 049°36'9 9.4 1001.5 3.7-0.2
2015-Jan-26 03:00S 52°42' W 049°48'1110.9 1001.2 3.7-0.3
2015-Jan-26 02:00S 52°42' W 050°06'1110.9 1001.4 4.0-0.0
2015-Jan-26 01:00S 52°42' W 050°24'7 7.3 1001.3 3.6 0.2
2015-Jan-26 00:00S 52°42' W 050°36'19 9.6 1001.0 4.9-0.4
2015-Jan-25 22:00S 52°36' W 051°06'1110.9 1000.9 5.0 0.6
2015-Jan-25 21:00S 52°36' W 051°24'7 7.3 1000.7 5.1 0.4
2015-Jan-25 20:00S 52°36' W 051°36'2311.3 1000.6 5.2 1.3
2015-Jan-25 18:00S 52°30' W 052°12'18 9.1 1000.4 5.3 1.3
2015-Jan-25 16:00S 52°30' W 052°42'1312.5 1000.4 5.2 1.4
2015-Jan-25 15:00S 52°24' W 053°00'2211.0 1000.5 5.1 2.0
2015-Jan-25 13:00S 52°24' W 053°36'7 7.3 1000.2 5.4 1.7
2015-Jan-25 12:00S 52°24' W 053°48'1312.5 1000.6 5.2 2.0
2015-Jan-25 11:00S 52°18' W 054°06'1111.0 1000.3 5.4 2.7
2015-Jan-25 10:00S 52°18' W 054°24'1111.0 1000.1 5.6 4.0
2015-Jan-25 09:00S 52°18' W 054°42'2311.4 999.4 6.4 5.5
2015-Jan-25 07:00S 52°12' W 055°18'1111.0 998.9 6.7 6.4
2015-Jan-25 06:00S 52°12' W 055°36'2311.4 998.7 6.9 6.6
2015-Jan-25 04:00S 52°06' W 056°12'2211.1 999.0 7.5 7.2
2015-Jan-25 02:00S 52°06' W 056°48'1312.6 999.9 7.6 7.2
2015-Jan-25 01:00S 52°00' W 057°06'1111.1 999.9 7.6 7.2
2015-Jan-25 00:00S 52°00' W 057°24'1111.1 999.6 7.7 7.2
2015-Jan-24 23:00S 52°00' W 057°42'2311.5 998.9 7.9 7.2
2015-Jan-24 21:00S 51°54' W 058°18'4 3.7 998.9 9.9 8.2
2015-Jan-24 20:00S 51°54' W 058°24'0 0.0 999.0 14.3 9.8
2015-Jan-24 18:00S 51°54' W 058°24'0 0.0 999.4 14.8 9.6
2015-Jan-24 17:00S 51°54' W 058°24'0 0.0 999.5 14.810.0
2015-Jan-24 15:00S 51°54' W 058°24'0 0.0 1000.2 12.3 9.6
2015-Jan-24 14:00S 51°54' W 058°24'0 0.0 1000.8 11.7 9.2
2015-Jan-24 13:00S 51°54' W 058°24'0 0.0 1001.4 11.5 9.0
2015-Jan-24 12:00S 51°54' W 058°24'0 0.0 1002.3 10.4 9.2
2015-Jan-24 11:00S 51°54' W 058°24'0 0.0 1003.0 10.1 9.7
2015-Jan-24 10:00S 51°54' W 058°24'0 0.0 1003.6 9.4 9.1
2015-Jan-24 09:00S 51°54' W 058°24'0 0.0 1003.6 9.1 8.8
2015-Jan-24 08:00S 51°54' W 058°24'0 0.0 1004.4 8.7 8.4
2015-Jan-24 07:00S 51°54' W 058°24'0 0.0 1005.0 8.8 8.4
2015-Jan-24 06:00S 51°54' W 058°24'0 0.0 1006.2 8.8 8.4
2015-Jan-24 04:00S 51°54' W 058°24'   1007.7 8.6 8.2
Track history (hours):
 
Tides and Currents Weather Stations Pressure Air Temp Water Temp Dewpoint Dewpoint Depression Visibility Wind Speed Wind Dir Waves Ship Positions

Oceanographic research ship Ernest Shackleton (UK/Norway)

Detailed information on ship capabilities available from University of Delaware's Ocean Information Center and ARCUS's ALIAS (Arctic Logistics Information and Support) project.

Last reported at 2015-Jan-26 04:00 UTC. Time now 2015-Jan-26 06:26 UTC.
Position S 52°48' W 049°36'.

Length 80 m; beam 17 m; draft 7.4 m.

Type: Other ship. MMSI: 740357000.

AWS

Barometer 1001.5 mb
Air temperature 3.7 ° C
Dewpoint -0.2 ° C

Date/timePositionNaut miles runAvg speedWind from/ knotsBaromVisibWave heightAir tempDewpointWater temp
2015-Jan-26 04:00S 52°48' W 049°36'9 9.4 1001.5 3.7-0.2
2015-Jan-26 03:00S 52°42' W 049°48'1110.9 1001.2 3.7-0.3
2015-Jan-26 02:00S 52°42' W 050°06'1110.9 1001.4 4.0-0.0
2015-Jan-26 01:00S 52°42' W 050°24'7 7.3 1001.3 3.6 0.2
2015-Jan-26 00:00S 52°42' W 050°36'19 9.6 1001.0 4.9-0.4
2015-Jan-25 22:00S 52°36' W 051°06'1110.9 1000.9 5.0 0.6
2015-Jan-25 21:00S 52°36' W 051°24'7 7.3 1000.7 5.1 0.4
2015-Jan-25 20:00S 52°36' W 051°36'2311.3 1000.6 5.2 1.3
2015-Jan-25 18:00S 52°30' W 052°12'18 9.1 1000.4 5.3 1.3
2015-Jan-25 16:00S 52°30' W 052°42'1312.5 1000.4 5.2 1.4
2015-Jan-25 15:00S 52°24' W 053°00'2211.0 1000.5 5.1 2.0
2015-Jan-25 13:00S 52°24' W 053°36'7 7.3 1000.2 5.4 1.7
2015-Jan-25 12:00S 52°24' W 053°48'1312.5 1000.6 5.2 2.0
2015-Jan-25 11:00S 52°18' W 054°06'1111.0 1000.3 5.4 2.7
2015-Jan-25 10:00S 52°18' W 054°24'1111.0 1000.1 5.6 4.0
2015-Jan-25 09:00S 52°18' W 054°42'2311.4 999.4 6.4 5.5
2015-Jan-25 07:00S 52°12' W 055°18'1111.0 998.9 6.7 6.4
2015-Jan-25 06:00S 52°12' W 055°36'2311.4 998.7 6.9 6.6
2015-Jan-25 04:00S 52°06' W 056°12'2211.1 999.0 7.5 7.2
2015-Jan-25 02:00S 52°06' W 056°48'1312.6 999.9 7.6 7.2
2015-Jan-25 01:00S 52°00' W 057°06'1111.1 999.9 7.6 7.2
2015-Jan-25 00:00S 52°00' W 057°24'1111.1 999.6 7.7 7.2
2015-Jan-24 23:00S 52°00' W 057°42'2311.5 998.9 7.9 7.2
2015-Jan-24 21:00S 51°54' W 058°18'4 3.7 998.9 9.9 8.2
2015-Jan-24 20:00S 51°54' W 058°24'0 0.0 999.0 14.3 9.8
2015-Jan-24 18:00S 51°54' W 058°24'0 0.0 999.4 14.8 9.6
2015-Jan-24 17:00S 51°54' W 058°24'0 0.0 999.5 14.810.0
2015-Jan-24 15:00S 51°54' W 058°24'0 0.0 1000.2 12.3 9.6
2015-Jan-24 14:00S 51°54' W 058°24'0 0.0 1000.8 11.7 9.2
2015-Jan-24 13:00S 51°54' W 058°24'0 0.0 1001.4 11.5 9.0
2015-Jan-24 12:00S 51°54' W 058°24'0 0.0 1002.3 10.4 9.2
2015-Jan-24 11:00S 51°54' W 058°24'0 0.0 1003.0 10.1 9.7
2015-Jan-24 10:00S 51°54' W 058°24'0 0.0 1003.6 9.4 9.1
2015-Jan-24 09:00S 51°54' W 058°24'0 0.0 1003.6 9.1 8.8
2015-Jan-24 08:00S 51°54' W 058°24'0 0.0 1004.4 8.7 8.4
2015-Jan-24 07:00S 51°54' W 058°24'0 0.0 1005.0 8.8 8.4
2015-Jan-24 06:00S 51°54' W 058°24'0 0.0 1006.2 8.8 8.4
2015-Jan-24 04:00S 51°54' W 058°24'   1007.7 8.6 8.2

Dump ship's entire track history